<?xml version="1.0" encoding="UTF-8" standalone="no" ?>
<gpx xmlns="http://www.topografix.com/GPX/1/1" xmlns:xsi="http://www.w3.org/2001/XMLSchema-instance" xsi:schemaLocation="http://www.topografix.com/GPX/1/1 http://www.topografix.com/GPX/1/1/gpx.xsd" version="1.1" creator="VisuGPX - https://www.visugpx.com">
  <metadata>
    <name>Cornafion St Michel</name>
  </metadata>
  <trk>
    <name><![CDATA[13709615-cornaf st michel]]></name>
    <trkseg>
      <trkpt lat="45.06912" lon="5.55643">
        <ele>1041</ele>
        <time>2021-09-15T15:29:21Z</time>
      </trkpt>
      <trkpt lat="45.0657" lon="5.56158">
        <ele>1089</ele>
        <time>2021-09-15T15:33:31Z</time>
      </trkpt>
      <trkpt lat="45.06472" lon="5.56377">
        <ele>1102</ele>
        <time>2021-09-15T15:35:02Z</time>
      </trkpt>
      <trkpt lat="45.06447" lon="5.56488">
        <ele>1110</ele>
        <time>2021-09-15T15:35:44Z</time>
      </trkpt>
      <trkpt lat="45.06387" lon="5.56558">
        <ele>1110</ele>
        <time>2021-09-15T15:36:23Z</time>
      </trkpt>
      <trkpt lat="45.06236" lon="5.56666">
        <ele>1120</ele>
        <time>2021-09-15T15:37:47Z</time>
      </trkpt>
      <trkpt lat="45.0623" lon="5.56705">
        <ele>1124</ele>
        <time>2021-09-15T15:38:01Z</time>
      </trkpt>
      <trkpt lat="45.06139" lon="5.56837">
        <ele>1141</ele>
        <time>2021-09-15T15:39:07Z</time>
      </trkpt>
      <trkpt lat="45.06086" lon="5.5698">
        <ele>1157</ele>
        <time>2021-09-15T15:40:04Z</time>
      </trkpt>
      <trkpt lat="45.06037" lon="5.57042">
        <ele>1169</ele>
        <time>2021-09-15T15:40:36Z</time>
      </trkpt>
      <trkpt lat="45.05956" lon="5.5732">
        <ele>1206</ele>
        <time>2021-09-15T15:42:23Z</time>
      </trkpt>
      <trkpt lat="45.05936" lon="5.57605">
        <ele>1236</ele>
        <time>2021-09-15T15:44:04Z</time>
      </trkpt>
      <trkpt lat="45.05937" lon="5.5772">
        <ele>1260</ele>
        <time>2021-09-15T15:44:45Z</time>
      </trkpt>
      <trkpt lat="45.05899" lon="5.57882">
        <ele>1290</ele>
        <time>2021-09-15T15:45:45Z</time>
      </trkpt>
      <trkpt lat="45.05811" lon="5.58034">
        <ele>1319</ele>
        <time>2021-09-15T15:46:55Z</time>
      </trkpt>
      <trkpt lat="45.05722" lon="5.58139">
        <ele>1336</ele>
        <time>2021-09-15T15:47:52Z</time>
      </trkpt>
      <trkpt lat="45.05622" lon="5.58209">
        <ele>1352</ele>
        <time>2021-09-15T15:48:48Z</time>
      </trkpt>
      <trkpt lat="45.05572" lon="5.58274">
        <ele>1371</ele>
        <time>2021-09-15T15:49:22Z</time>
      </trkpt>
      <trkpt lat="45.0553" lon="5.58312">
        <ele>1384</ele>
        <time>2021-09-15T15:49:47Z</time>
      </trkpt>
      <trkpt lat="45.0544" lon="5.58325">
        <ele>1396</ele>
        <time>2021-09-15T15:50:32Z</time>
      </trkpt>
      <trkpt lat="45.05371" lon="5.58408">
        <ele>1409</ele>
        <time>2021-09-15T15:51:18Z</time>
      </trkpt>
      <trkpt lat="45.05363" lon="5.58473">
        <ele>1419</ele>
        <time>2021-09-15T15:51:41Z</time>
      </trkpt>
      <trkpt lat="45.0534" lon="5.58511">
        <ele>1425</ele>
        <time>2021-09-15T15:51:59Z</time>
      </trkpt>
      <trkpt lat="45.05311" lon="5.58617">
        <ele>1440</ele>
        <time>2021-09-15T15:52:39Z</time>
      </trkpt>
      <trkpt lat="45.05283" lon="5.58749">
        <ele>1458</ele>
        <time>2021-09-15T15:53:28Z</time>
      </trkpt>
      <trkpt lat="45.0524" lon="5.58905">
        <ele>1483</ele>
        <time>2021-09-15T15:54:27Z</time>
      </trkpt>
      <trkpt lat="45.05257" lon="5.58954">
        <ele>1492</ele>
        <time>2021-09-15T15:54:46Z</time>
      </trkpt>
      <trkpt lat="45.05234" lon="5.59008">
        <ele>1505</ele>
        <time>2021-09-15T15:55:09Z</time>
      </trkpt>
      <trkpt lat="45.05277" lon="5.59371">
        <ele>1591</ele>
        <time>2021-09-15T15:57:19Z</time>
      </trkpt>
      <trkpt lat="45.05276" lon="5.59533">
        <ele>1652</ele>
        <time>2021-09-15T15:58:16Z</time>
      </trkpt>
      <trkpt lat="45.05273" lon="5.59587">
        <ele>1684</ele>
        <time>2021-09-15T15:58:35Z</time>
      </trkpt>
      <trkpt lat="45.05213" lon="5.59611">
        <ele>1699</ele>
        <time>2021-09-15T15:59:06Z</time>
      </trkpt>
      <trkpt lat="45.05277" lon="5.59718">
        <ele>1737</ele>
        <time>2021-09-15T15:59:56Z</time>
      </trkpt>
      <trkpt lat="45.05322" lon="5.5972">
        <ele>1745</ele>
        <time>2021-09-15T16:00:18Z</time>
      </trkpt>
      <trkpt lat="45.05332" lon="5.59751">
        <ele>1753</ele>
        <time>2021-09-15T16:00:30Z</time>
      </trkpt>
      <trkpt lat="45.05346" lon="5.59757">
        <ele>1758</ele>
        <time>2021-09-15T16:00:38Z</time>
      </trkpt>
      <trkpt lat="45.05396" lon="5.59814">
        <ele>1766</ele>
        <time>2021-09-15T16:01:10Z</time>
      </trkpt>
      <trkpt lat="45.05401" lon="5.59826">
        <ele>1766</ele>
        <time>2021-09-15T16:01:15Z</time>
      </trkpt>
      <trkpt lat="45.0541" lon="5.59831">
        <ele>1770</ele>
        <time>2021-09-15T16:01:20Z</time>
      </trkpt>
      <trkpt lat="45.05418" lon="5.59854">
        <ele>1764</ele>
        <time>2021-09-15T16:01:29Z</time>
      </trkpt>
      <trkpt lat="45.05454" lon="5.59902">
        <ele>1759</ele>
        <time>2021-09-15T16:01:53Z</time>
      </trkpt>
      <trkpt lat="45.05463" lon="5.59919">
        <ele>1757</ele>
        <time>2021-09-15T16:02:01Z</time>
      </trkpt>
      <trkpt lat="45.05469" lon="5.59944">
        <ele>1745</ele>
        <time>2021-09-15T16:02:10Z</time>
      </trkpt>
      <trkpt lat="45.05483" lon="5.59974">
        <ele>1735</ele>
        <time>2021-09-15T16:02:23Z</time>
      </trkpt>
      <trkpt lat="45.05533" lon="5.60012">
        <ele>1734</ele>
        <time>2021-09-15T16:02:51Z</time>
      </trkpt>
      <trkpt lat="45.05535" lon="5.60021">
        <ele>1731</ele>
        <time>2021-09-15T16:02:55Z</time>
      </trkpt>
      <trkpt lat="45.05543" lon="5.60027">
        <ele>1731</ele>
        <time>2021-09-15T16:02:59Z</time>
      </trkpt>
      <trkpt lat="45.05554" lon="5.60054">
        <ele>1722</ele>
        <time>2021-09-15T16:03:10Z</time>
      </trkpt>
      <trkpt lat="45.05567" lon="5.60072">
        <ele>1716</ele>
        <time>2021-09-15T16:03:19Z</time>
      </trkpt>
      <trkpt lat="45.05576" lon="5.60067">
        <ele>1721</ele>
        <time>2021-09-15T16:03:24Z</time>
      </trkpt>
      <trkpt lat="45.05591" lon="5.60073">
        <ele>1723</ele>
        <time>2021-09-15T16:03:32Z</time>
      </trkpt>
      <trkpt lat="45.05607" lon="5.60068">
        <ele>1733</ele>
        <time>2021-09-15T16:03:40Z</time>
      </trkpt>
      <trkpt lat="45.05622" lon="5.60072">
        <ele>1738</ele>
        <time>2021-09-15T16:03:48Z</time>
      </trkpt>
      <trkpt lat="45.05629" lon="5.60071">
        <ele>1742</ele>
        <time>2021-09-15T16:03:51Z</time>
      </trkpt>
      <trkpt lat="45.05646" lon="5.60084">
        <ele>1746</ele>
        <time>2021-09-15T16:04:01Z</time>
      </trkpt>
      <trkpt lat="45.05673" lon="5.60099">
        <ele>1752</ele>
        <time>2021-09-15T16:04:16Z</time>
      </trkpt>
      <trkpt lat="45.05703" lon="5.60111">
        <ele>1757</ele>
        <time>2021-09-15T16:04:31Z</time>
      </trkpt>
      <trkpt lat="45.0571" lon="5.6012">
        <ele>1754</ele>
        <time>2021-09-15T16:04:36Z</time>
      </trkpt>
      <trkpt lat="45.05729" lon="5.6013">
        <ele>1753</ele>
        <time>2021-09-15T16:04:46Z</time>
      </trkpt>
      <trkpt lat="45.05737" lon="5.60129">
        <ele>1756</ele>
        <time>2021-09-15T16:04:50Z</time>
      </trkpt>
      <trkpt lat="45.05745" lon="5.60135">
        <ele>1754</ele>
        <time>2021-09-15T16:04:55Z</time>
      </trkpt>
      <trkpt lat="45.05773" lon="5.60141">
        <ele>1757</ele>
        <time>2021-09-15T16:05:09Z</time>
      </trkpt>
      <trkpt lat="45.05799" lon="5.60161">
        <ele>1753</ele>
        <time>2021-09-15T16:05:24Z</time>
      </trkpt>
      <trkpt lat="45.05814" lon="5.60177">
        <ele>1747</ele>
        <time>2021-09-15T16:05:33Z</time>
      </trkpt>
      <trkpt lat="45.05863" lon="5.60195">
        <ele>1753</ele>
        <time>2021-09-15T16:05:58Z</time>
      </trkpt>
      <trkpt lat="45.0591" lon="5.60237">
        <ele>1750</ele>
        <time>2021-09-15T16:06:26Z</time>
      </trkpt>
      <trkpt lat="45.05923" lon="5.6023">
        <ele>1759</ele>
        <time>2021-09-15T16:06:33Z</time>
      </trkpt>
      <trkpt lat="45.05946" lon="5.60235">
        <ele>1763</ele>
        <time>2021-09-15T16:06:45Z</time>
      </trkpt>
      <trkpt lat="45.0597" lon="5.60266">
        <ele>1752</ele>
        <time>2021-09-15T16:07:01Z</time>
      </trkpt>
      <trkpt lat="45.05988" lon="5.60265">
        <ele>1758</ele>
        <time>2021-09-15T16:07:10Z</time>
      </trkpt>
      <trkpt lat="45.06001" lon="5.60267">
        <ele>1761</ele>
        <time>2021-09-15T16:07:17Z</time>
      </trkpt>
      <trkpt lat="45.06006" lon="5.60271">
        <ele>1760</ele>
        <time>2021-09-15T16:07:19Z</time>
      </trkpt>
      <trkpt lat="45.06017" lon="5.60267">
        <ele>1767</ele>
        <time>2021-09-15T16:07:25Z</time>
      </trkpt>
      <trkpt lat="45.06034" lon="5.60285">
        <ele>1763</ele>
        <time>2021-09-15T16:07:36Z</time>
      </trkpt>
      <trkpt lat="45.06054" lon="5.60295">
        <ele>1765</ele>
        <time>2021-09-15T16:07:46Z</time>
      </trkpt>
      <trkpt lat="45.06082" lon="5.6032">
        <ele>1761</ele>
        <time>2021-09-15T16:08:03Z</time>
      </trkpt>
      <trkpt lat="45.06086" lon="5.60315">
        <ele>1766</ele>
        <time>2021-09-15T16:08:06Z</time>
      </trkpt>
      <trkpt lat="45.06069" lon="5.60283">
        <ele>1779</ele>
        <time>2021-09-15T16:08:20Z</time>
      </trkpt>
      <trkpt lat="45.06074" lon="5.60282">
        <ele>1781</ele>
        <time>2021-09-15T16:08:22Z</time>
      </trkpt>
      <trkpt lat="45.06068" lon="5.60273">
        <ele>1784</ele>
        <time>2021-09-15T16:08:27Z</time>
      </trkpt>
      <trkpt lat="45.06073" lon="5.60271">
        <ele>1788</ele>
        <time>2021-09-15T16:08:29Z</time>
      </trkpt>
      <trkpt lat="45.06052" lon="5.60247">
        <ele>1794</ele>
        <time>2021-09-15T16:08:43Z</time>
      </trkpt>
      <trkpt lat="45.06057" lon="5.60245">
        <ele>1797</ele>
        <time>2021-09-15T16:08:45Z</time>
      </trkpt>
      <trkpt lat="45.06046" lon="5.60226">
        <ele>1801</ele>
        <time>2021-09-15T16:08:54Z</time>
      </trkpt>
      <trkpt lat="45.06047" lon="5.6022">
        <ele>1805</ele>
        <time>2021-09-15T16:08:56Z</time>
      </trkpt>
      <trkpt lat="45.06043" lon="5.60212">
        <ele>1807</ele>
        <time>2021-09-15T16:09:00Z</time>
      </trkpt>
      <trkpt lat="45.06036" lon="5.60209">
        <ele>1805</ele>
        <time>2021-09-15T16:09:03Z</time>
      </trkpt>
      <trkpt lat="45.06043" lon="5.60204">
        <ele>1811</ele>
        <time>2021-09-15T16:09:07Z</time>
      </trkpt>
      <trkpt lat="45.06063" lon="5.6023">
        <ele>1806</ele>
        <time>2021-09-15T16:09:21Z</time>
      </trkpt>
      <trkpt lat="45.06088" lon="5.60241">
        <ele>1812</ele>
        <time>2021-09-15T16:09:34Z</time>
      </trkpt>
      <trkpt lat="45.06086" lon="5.60234">
        <ele>1814</ele>
        <time>2021-09-15T16:09:37Z</time>
      </trkpt>
      <trkpt lat="45.06104" lon="5.60242">
        <ele>1821</ele>
        <time>2021-09-15T16:09:46Z</time>
      </trkpt>
      <trkpt lat="45.06115" lon="5.60258">
        <ele>1820</ele>
        <time>2021-09-15T16:09:54Z</time>
      </trkpt>
      <trkpt lat="45.06134" lon="5.60261">
        <ele>1830</ele>
        <time>2021-09-15T16:10:03Z</time>
      </trkpt>
      <trkpt lat="45.06103" lon="5.60221">
        <ele>1829</ele>
        <time>2021-09-15T16:10:24Z</time>
      </trkpt>
      <trkpt lat="45.06148" lon="5.60246">
        <ele>1847</ele>
        <time>2021-09-15T16:10:49Z</time>
      </trkpt>
      <trkpt lat="45.06152" lon="5.60246">
        <ele>1849</ele>
        <time>2021-09-15T16:10:51Z</time>
      </trkpt>
      <trkpt lat="45.06137" lon="5.60225">
        <ele>1846</ele>
        <time>2021-09-15T16:11:01Z</time>
      </trkpt>
      <trkpt lat="45.06126" lon="5.60217">
        <ele>1842</ele>
        <time>2021-09-15T16:11:07Z</time>
      </trkpt>
      <trkpt lat="45.06117" lon="5.60202">
        <ele>1843</ele>
        <time>2021-09-15T16:11:14Z</time>
      </trkpt>
      <trkpt lat="45.06112" lon="5.60199">
        <ele>1842</ele>
        <time>2021-09-15T16:11:17Z</time>
      </trkpt>
      <trkpt lat="45.0611" lon="5.60189">
        <ele>1845</ele>
        <time>2021-09-15T16:11:21Z</time>
      </trkpt>
      <trkpt lat="45.06105" lon="5.60185">
        <ele>1845</ele>
        <time>2021-09-15T16:11:24Z</time>
      </trkpt>
      <trkpt lat="45.0611" lon="5.60185">
        <ele>1846</ele>
        <time>2021-09-15T16:11:26Z</time>
      </trkpt>
      <trkpt lat="45.06117" lon="5.60191">
        <ele>1847</ele>
        <time>2021-09-15T16:11:30Z</time>
      </trkpt>
      <trkpt lat="45.06146" lon="5.60204">
        <ele>1855</ele>
        <time>2021-09-15T16:11:45Z</time>
      </trkpt>
      <trkpt lat="45.06149" lon="5.60211">
        <ele>1855</ele>
        <time>2021-09-15T16:11:48Z</time>
      </trkpt>
      <trkpt lat="45.06154" lon="5.60208">
        <ele>1858</ele>
        <time>2021-09-15T16:11:51Z</time>
      </trkpt>
      <trkpt lat="45.06163" lon="5.60212">
        <ele>1861</ele>
        <time>2021-09-15T16:11:56Z</time>
      </trkpt>
      <trkpt lat="45.06168" lon="5.60219">
        <ele>1862</ele>
        <time>2021-09-15T16:11:59Z</time>
      </trkpt>
      <trkpt lat="45.06183" lon="5.60216">
        <ele>1866</ele>
        <time>2021-09-15T16:12:07Z</time>
      </trkpt>
      <trkpt lat="45.06217" lon="5.60253">
        <ele>1870</ele>
        <time>2021-09-15T16:12:28Z</time>
      </trkpt>
      <trkpt lat="45.06215" lon="5.60244">
        <ele>1872</ele>
        <time>2021-09-15T16:12:32Z</time>
      </trkpt>
      <trkpt lat="45.06223" lon="5.60249">
        <ele>1874</ele>
        <time>2021-09-15T16:12:36Z</time>
      </trkpt>
      <trkpt lat="45.0623" lon="5.60249">
        <ele>1876</ele>
        <time>2021-09-15T16:12:40Z</time>
      </trkpt>
      <trkpt lat="45.06236" lon="5.60255">
        <ele>1874</ele>
        <time>2021-09-15T16:12:43Z</time>
      </trkpt>
      <trkpt lat="45.06234" lon="5.60258">
        <ele>1872</ele>
        <time>2021-09-15T16:12:45Z</time>
      </trkpt>
      <trkpt lat="45.06237" lon="5.60262">
        <ele>1870</ele>
        <time>2021-09-15T16:12:47Z</time>
      </trkpt>
      <trkpt lat="45.06247" lon="5.6026">
        <ele>1874</ele>
        <time>2021-09-15T16:12:52Z</time>
      </trkpt>
      <trkpt lat="45.06242" lon="5.60254">
        <ele>1876</ele>
        <time>2021-09-15T16:12:55Z</time>
      </trkpt>
      <trkpt lat="45.06289" lon="5.6026">
        <ele>1893</ele>
        <time>2021-09-15T16:13:19Z</time>
      </trkpt>
      <trkpt lat="45.06303" lon="5.60269">
        <ele>1895</ele>
        <time>2021-09-15T16:13:26Z</time>
      </trkpt>
      <trkpt lat="45.06319" lon="5.60274">
        <ele>1900</ele>
        <time>2021-09-15T16:13:35Z</time>
      </trkpt>
      <trkpt lat="45.06319" lon="5.6028">
        <ele>1897</ele>
        <time>2021-09-15T16:13:37Z</time>
      </trkpt>
      <trkpt lat="45.06342" lon="5.60282">
        <ele>1908</ele>
        <time>2021-09-15T16:13:48Z</time>
      </trkpt>
      <trkpt lat="45.06355" lon="5.60298">
        <ele>1908</ele>
        <time>2021-09-15T16:13:57Z</time>
      </trkpt>
      <trkpt lat="45.06365" lon="5.6032">
        <ele>1903</ele>
        <time>2021-09-15T16:14:06Z</time>
      </trkpt>
      <trkpt lat="45.06376" lon="5.60331">
        <ele>1903</ele>
        <time>2021-09-15T16:14:13Z</time>
      </trkpt>
      <trkpt lat="45.06382" lon="5.60334">
        <ele>1905</ele>
        <time>2021-09-15T16:14:16Z</time>
      </trkpt>
      <trkpt lat="45.06396" lon="5.6033">
        <ele>1913</ele>
        <time>2021-09-15T16:14:23Z</time>
      </trkpt>
      <trkpt lat="45.06401" lon="5.60333">
        <ele>1914</ele>
        <time>2021-09-15T16:14:26Z</time>
      </trkpt>
      <trkpt lat="45.06394" lon="5.60319">
        <ele>1918</ele>
        <time>2021-09-15T16:14:32Z</time>
      </trkpt>
      <trkpt lat="45.06382" lon="5.60306">
        <ele>1918</ele>
        <time>2021-09-15T16:14:40Z</time>
      </trkpt>
      <trkpt lat="45.06412" lon="5.60311">
        <ele>1931</ele>
        <time>2021-09-15T16:14:55Z</time>
      </trkpt>
      <trkpt lat="45.06382" lon="5.60271">
        <ele>1935</ele>
        <time>2021-09-15T16:15:15Z</time>
      </trkpt>
      <trkpt lat="45.06377" lon="5.60259">
        <ele>1938</ele>
        <time>2021-09-15T16:15:20Z</time>
      </trkpt>
      <trkpt lat="45.0637" lon="5.60255">
        <ele>1936</ele>
        <time>2021-09-15T16:15:24Z</time>
      </trkpt>
      <trkpt lat="45.06368" lon="5.60246">
        <ele>1938</ele>
        <time>2021-09-15T16:15:27Z</time>
      </trkpt>
      <trkpt lat="45.06361" lon="5.60235">
        <ele>1936</ele>
        <time>2021-09-15T16:15:33Z</time>
      </trkpt>
      <trkpt lat="45.06381" lon="5.60245">
        <ele>1945</ele>
        <time>2021-09-15T16:15:43Z</time>
      </trkpt>
      <trkpt lat="45.06386" lon="5.60241">
        <ele>1948</ele>
        <time>2021-09-15T16:15:46Z</time>
      </trkpt>
      <trkpt lat="45.0638" lon="5.60238">
        <ele>1946</ele>
        <time>2021-09-15T16:15:49Z</time>
      </trkpt>
      <trkpt lat="45.06378" lon="5.60231">
        <ele>1945</ele>
        <time>2021-09-15T16:15:52Z</time>
      </trkpt>
      <trkpt lat="45.06363" lon="5.60213">
        <ele>1941</ele>
        <time>2021-09-15T16:16:02Z</time>
      </trkpt>
      <trkpt lat="45.0637" lon="5.60212">
        <ele>1945</ele>
        <time>2021-09-15T16:16:05Z</time>
      </trkpt>
      <trkpt lat="45.0638" lon="5.6022">
        <ele>1948</ele>
        <time>2021-09-15T16:16:11Z</time>
      </trkpt>
      <trkpt lat="45.06376" lon="5.60212">
        <ele>1947</ele>
        <time>2021-09-15T16:16:14Z</time>
      </trkpt>
      <trkpt lat="45.06365" lon="5.602">
        <ele>1945</ele>
        <time>2021-09-15T16:16:21Z</time>
      </trkpt>
      <trkpt lat="45.06359" lon="5.60198">
        <ele>1943</ele>
        <time>2021-09-15T16:16:24Z</time>
      </trkpt>
      <trkpt lat="45.0636" lon="5.60195">
        <ele>1944</ele>
        <time>2021-09-15T16:16:26Z</time>
      </trkpt>
      <trkpt lat="45.06351" lon="5.6019">
        <ele>1942</ele>
        <time>2021-09-15T16:16:31Z</time>
      </trkpt>
      <trkpt lat="45.06346" lon="5.60183">
        <ele>1941</ele>
        <time>2021-09-15T16:16:34Z</time>
      </trkpt>
      <trkpt lat="45.06344" lon="5.60175">
        <ele>1943</ele>
        <time>2021-09-15T16:16:37Z</time>
      </trkpt>
      <trkpt lat="45.06333" lon="5.60158">
        <ele>1937</ele>
        <time>2021-09-15T16:16:45Z</time>
      </trkpt>
      <trkpt lat="45.06335" lon="5.60154">
        <ele>1935</ele>
        <time>2021-09-15T16:16:47Z</time>
      </trkpt>
      <trkpt lat="45.06314" lon="5.6013">
        <ele>1909</ele>
        <time>2021-09-15T16:17:00Z</time>
      </trkpt>
      <trkpt lat="45.06322" lon="5.60129">
        <ele>1914</ele>
        <time>2021-09-15T16:17:04Z</time>
      </trkpt>
      <trkpt lat="45.06295" lon="5.60107">
        <ele>1887</ele>
        <time>2021-09-15T16:17:20Z</time>
      </trkpt>
      <trkpt lat="45.06307" lon="5.60102">
        <ele>1891</ele>
        <time>2021-09-15T16:17:26Z</time>
      </trkpt>
      <trkpt lat="45.063" lon="5.60098">
        <ele>1885</ele>
        <time>2021-09-15T16:17:30Z</time>
      </trkpt>
      <trkpt lat="45.063" lon="5.60091">
        <ele>1881</ele>
        <time>2021-09-15T16:17:33Z</time>
      </trkpt>
      <trkpt lat="45.06286" lon="5.60079">
        <ele>1871</ele>
        <time>2021-09-15T16:17:41Z</time>
      </trkpt>
      <trkpt lat="45.06393" lon="5.60342">
        <ele>1905</ele>
        <time>2021-09-15T16:19:28Z</time>
      </trkpt>
      <trkpt lat="45.06441" lon="5.60381">
        <ele>1901</ele>
        <time>2021-09-15T16:19:56Z</time>
      </trkpt>
      <trkpt lat="45.06438" lon="5.60389">
        <ele>1895</ele>
        <time>2021-09-15T16:19:59Z</time>
      </trkpt>
      <trkpt lat="45.06452" lon="5.60391">
        <ele>1898</ele>
        <time>2021-09-15T16:20:06Z</time>
      </trkpt>
      <trkpt lat="45.06442" lon="5.60404">
        <ele>1888</ele>
        <time>2021-09-15T16:20:13Z</time>
      </trkpt>
      <trkpt lat="45.06458" lon="5.60403">
        <ele>1894</ele>
        <time>2021-09-15T16:20:21Z</time>
      </trkpt>
      <trkpt lat="45.06452" lon="5.6041">
        <ele>1888</ele>
        <time>2021-09-15T16:20:25Z</time>
      </trkpt>
      <trkpt lat="45.06458" lon="5.60412">
        <ele>1889</ele>
        <time>2021-09-15T16:20:28Z</time>
      </trkpt>
      <trkpt lat="45.06463" lon="5.60408">
        <ele>1893</ele>
        <time>2021-09-15T16:20:31Z</time>
      </trkpt>
      <trkpt lat="45.06468" lon="5.60411">
        <ele>1893</ele>
        <time>2021-09-15T16:20:33Z</time>
      </trkpt>
      <trkpt lat="45.0647" lon="5.60418">
        <ele>1890</ele>
        <time>2021-09-15T16:20:36Z</time>
      </trkpt>
      <trkpt lat="45.06485" lon="5.60422">
        <ele>1892</ele>
        <time>2021-09-15T16:20:44Z</time>
      </trkpt>
      <trkpt lat="45.06512" lon="5.60456">
        <ele>1875</ele>
        <time>2021-09-15T16:21:02Z</time>
      </trkpt>
      <trkpt lat="45.06514" lon="5.60464">
        <ele>1870</ele>
        <time>2021-09-15T16:21:05Z</time>
      </trkpt>
      <trkpt lat="45.06537" lon="5.60482">
        <ele>1865</ele>
        <time>2021-09-15T16:21:18Z</time>
      </trkpt>
      <trkpt lat="45.06542" lon="5.60492">
        <ele>1860</ele>
        <time>2021-09-15T16:21:22Z</time>
      </trkpt>
      <trkpt lat="45.06546" lon="5.60493">
        <ele>1861</ele>
        <time>2021-09-15T16:21:24Z</time>
      </trkpt>
      <trkpt lat="45.06554" lon="5.60489">
        <ele>1867</ele>
        <time>2021-09-15T16:21:28Z</time>
      </trkpt>
      <trkpt lat="45.06565" lon="5.60498">
        <ele>1865</ele>
        <time>2021-09-15T16:21:35Z</time>
      </trkpt>
      <trkpt lat="45.06562" lon="5.60503">
        <ele>1860</ele>
        <time>2021-09-15T16:21:37Z</time>
      </trkpt>
      <trkpt lat="45.06574" lon="5.60503">
        <ele>1866</ele>
        <time>2021-09-15T16:21:43Z</time>
      </trkpt>
      <trkpt lat="45.06581" lon="5.60512">
        <ele>1863</ele>
        <time>2021-09-15T16:21:48Z</time>
      </trkpt>
      <trkpt lat="45.06597" lon="5.60521">
        <ele>1864</ele>
        <time>2021-09-15T16:21:56Z</time>
      </trkpt>
      <trkpt lat="45.06594" lon="5.60524">
        <ele>1861</ele>
        <time>2021-09-15T16:21:58Z</time>
      </trkpt>
      <trkpt lat="45.06579" lon="5.60529">
        <ele>1850</ele>
        <time>2021-09-15T16:22:06Z</time>
      </trkpt>
      <trkpt lat="45.06595" lon="5.60539">
        <ele>1851</ele>
        <time>2021-09-15T16:22:15Z</time>
      </trkpt>
      <trkpt lat="45.06603" lon="5.60553">
        <ele>1845</ele>
        <time>2021-09-15T16:22:21Z</time>
      </trkpt>
      <trkpt lat="45.0661" lon="5.60573">
        <ele>1835</ele>
        <time>2021-09-15T16:22:29Z</time>
      </trkpt>
      <trkpt lat="45.06608" lon="5.60574">
        <ele>1833</ele>
        <time>2021-09-15T16:22:30Z</time>
      </trkpt>
      <trkpt lat="45.06602" lon="5.60563">
        <ele>1838</ele>
        <time>2021-09-15T16:22:35Z</time>
      </trkpt>
      <trkpt lat="45.06604" lon="5.60588">
        <ele>1821</ele>
        <time>2021-09-15T16:22:44Z</time>
      </trkpt>
      <trkpt lat="45.0661" lon="5.60585">
        <ele>1826</ele>
        <time>2021-09-15T16:22:47Z</time>
      </trkpt>
      <trkpt lat="45.06615" lon="5.60589">
        <ele>1826</ele>
        <time>2021-09-15T16:22:50Z</time>
      </trkpt>
      <trkpt lat="45.06632" lon="5.60588">
        <ele>1834</ele>
        <time>2021-09-15T16:22:58Z</time>
      </trkpt>
      <trkpt lat="45.06638" lon="5.60594">
        <ele>1833</ele>
        <time>2021-09-15T16:23:02Z</time>
      </trkpt>
      <trkpt lat="45.06644" lon="5.60592">
        <ele>1837</ele>
        <time>2021-09-15T16:23:05Z</time>
      </trkpt>
      <trkpt lat="45.06656" lon="5.60604">
        <ele>1833</ele>
        <time>2021-09-15T16:23:13Z</time>
      </trkpt>
      <trkpt lat="45.06661" lon="5.60622">
        <ele>1822</ele>
        <time>2021-09-15T16:23:19Z</time>
      </trkpt>
      <trkpt lat="45.06667" lon="5.60623">
        <ele>1824</ele>
        <time>2021-09-15T16:23:22Z</time>
      </trkpt>
      <trkpt lat="45.06682" lon="5.60619">
        <ele>1838</ele>
        <time>2021-09-15T16:23:30Z</time>
      </trkpt>
      <trkpt lat="45.06691" lon="5.60656">
        <ele>1816</ele>
        <time>2021-09-15T16:23:44Z</time>
      </trkpt>
      <trkpt lat="45.0671" lon="5.60676">
        <ele>1816</ele>
        <time>2021-09-15T16:23:56Z</time>
      </trkpt>
      <trkpt lat="45.06721" lon="5.60676">
        <ele>1824</ele>
        <time>2021-09-15T16:24:01Z</time>
      </trkpt>
      <trkpt lat="45.06726" lon="5.60689">
        <ele>1819</ele>
        <time>2021-09-15T16:24:07Z</time>
      </trkpt>
      <trkpt lat="45.06728" lon="5.60709">
        <ele>1808</ele>
        <time>2021-09-15T16:24:14Z</time>
      </trkpt>
      <trkpt lat="45.06737" lon="5.60708">
        <ele>1815</ele>
        <time>2021-09-15T16:24:18Z</time>
      </trkpt>
      <trkpt lat="45.06752" lon="5.60753">
        <ele>1796</ele>
        <time>2021-09-15T16:24:36Z</time>
      </trkpt>
      <trkpt lat="45.06765" lon="5.60748">
        <ele>1807</ele>
        <time>2021-09-15T16:24:42Z</time>
      </trkpt>
      <trkpt lat="45.06777" lon="5.60789">
        <ele>1788</ele>
        <time>2021-09-15T16:24:58Z</time>
      </trkpt>
      <trkpt lat="45.06799" lon="5.60798">
        <ele>1794</ele>
        <time>2021-09-15T16:25:10Z</time>
      </trkpt>
      <trkpt lat="45.06817" lon="5.60828">
        <ele>1784</ele>
        <time>2021-09-15T16:25:24Z</time>
      </trkpt>
      <trkpt lat="45.06813" lon="5.60803">
        <ele>1799</ele>
        <time>2021-09-15T16:25:33Z</time>
      </trkpt>
      <trkpt lat="45.06825" lon="5.60821">
        <ele>1793</ele>
        <time>2021-09-15T16:25:41Z</time>
      </trkpt>
      <trkpt lat="45.0683" lon="5.60822">
        <ele>1795</ele>
        <time>2021-09-15T16:25:44Z</time>
      </trkpt>
      <trkpt lat="45.06833" lon="5.60829">
        <ele>1792</ele>
        <time>2021-09-15T16:25:47Z</time>
      </trkpt>
      <trkpt lat="45.06846" lon="5.6083">
        <ele>1799</ele>
        <time>2021-09-15T16:25:53Z</time>
      </trkpt>
      <trkpt lat="45.06852" lon="5.60839">
        <ele>1796</ele>
        <time>2021-09-15T16:25:58Z</time>
      </trkpt>
      <trkpt lat="45.0685" lon="5.60824">
        <ele>1805</ele>
        <time>2021-09-15T16:26:03Z</time>
      </trkpt>
      <trkpt lat="45.06854" lon="5.60829">
        <ele>1804</ele>
        <time>2021-09-15T16:26:06Z</time>
      </trkpt>
      <trkpt lat="45.06853" lon="5.60816">
        <ele>1812</ele>
        <time>2021-09-15T16:26:10Z</time>
      </trkpt>
      <trkpt lat="45.06862" lon="5.60815">
        <ele>1818</ele>
        <time>2021-09-15T16:26:15Z</time>
      </trkpt>
      <trkpt lat="45.06871" lon="5.60805">
        <ele>1830</ele>
        <time>2021-09-15T16:26:21Z</time>
      </trkpt>
      <trkpt lat="45.06895" lon="5.60833">
        <ele>1825</ele>
        <time>2021-09-15T16:26:36Z</time>
      </trkpt>
      <trkpt lat="45.06911" lon="5.6083">
        <ele>1836</ele>
        <time>2021-09-15T16:26:44Z</time>
      </trkpt>
      <trkpt lat="45.06922" lon="5.60838">
        <ele>1836</ele>
        <time>2021-09-15T16:26:50Z</time>
      </trkpt>
      <trkpt lat="45.06931" lon="5.60853">
        <ele>1829</ele>
        <time>2021-09-15T16:26:57Z</time>
      </trkpt>
      <trkpt lat="45.06936" lon="5.6087">
        <ele>1820</ele>
        <time>2021-09-15T16:27:04Z</time>
      </trkpt>
      <trkpt lat="45.06942" lon="5.6087">
        <ele>1822</ele>
        <time>2021-09-15T16:27:07Z</time>
      </trkpt>
      <trkpt lat="45.06942" lon="5.60864">
        <ele>1826</ele>
        <time>2021-09-15T16:27:09Z</time>
      </trkpt>
      <trkpt lat="45.06952" lon="5.60863">
        <ele>1831</ele>
        <time>2021-09-15T16:27:14Z</time>
      </trkpt>
      <trkpt lat="45.06957" lon="5.60866">
        <ele>1831</ele>
        <time>2021-09-15T16:27:17Z</time>
      </trkpt>
      <trkpt lat="45.06958" lon="5.60856">
        <ele>1837</ele>
        <time>2021-09-15T16:27:20Z</time>
      </trkpt>
      <trkpt lat="45.06962" lon="5.60852">
        <ele>1841</ele>
        <time>2021-09-15T16:27:23Z</time>
      </trkpt>
      <trkpt lat="45.06975" lon="5.60848">
        <ele>1848</ele>
        <time>2021-09-15T16:27:29Z</time>
      </trkpt>
      <trkpt lat="45.06984" lon="5.60862">
        <ele>1843</ele>
        <time>2021-09-15T16:27:36Z</time>
      </trkpt>
      <trkpt lat="45.06991" lon="5.60863">
        <ele>1845</ele>
        <time>2021-09-15T16:27:40Z</time>
      </trkpt>
      <trkpt lat="45.07001" lon="5.6088">
        <ele>1839</ele>
        <time>2021-09-15T16:27:47Z</time>
      </trkpt>
      <trkpt lat="45.07" lon="5.60892">
        <ele>1832</ele>
        <time>2021-09-15T16:27:52Z</time>
      </trkpt>
      <trkpt lat="45.07016" lon="5.60881">
        <ele>1845</ele>
        <time>2021-09-15T16:28:01Z</time>
      </trkpt>
      <trkpt lat="45.0702" lon="5.60883">
        <ele>1845</ele>
        <time>2021-09-15T16:28:03Z</time>
      </trkpt>
      <trkpt lat="45.0703" lon="5.60877">
        <ele>1852</ele>
        <time>2021-09-15T16:28:08Z</time>
      </trkpt>
      <trkpt lat="45.07053" lon="5.60914">
        <ele>1842</ele>
        <time>2021-09-15T16:28:26Z</time>
      </trkpt>
      <trkpt lat="45.07076" lon="5.60914">
        <ele>1851</ele>
        <time>2021-09-15T16:28:37Z</time>
      </trkpt>
      <trkpt lat="45.07087" lon="5.6092">
        <ele>1853</ele>
        <time>2021-09-15T16:28:43Z</time>
      </trkpt>
      <trkpt lat="45.07096" lon="5.60936">
        <ele>1846</ele>
        <time>2021-09-15T16:28:50Z</time>
      </trkpt>
      <trkpt lat="45.07103" lon="5.60938">
        <ele>1848</ele>
        <time>2021-09-15T16:28:54Z</time>
      </trkpt>
      <trkpt lat="45.07107" lon="5.60952">
        <ele>1841</ele>
        <time>2021-09-15T16:28:59Z</time>
      </trkpt>
      <trkpt lat="45.07112" lon="5.60954">
        <ele>1841</ele>
        <time>2021-09-15T16:29:02Z</time>
      </trkpt>
      <trkpt lat="45.07119" lon="5.6097">
        <ele>1833</ele>
        <time>2021-09-15T16:29:08Z</time>
      </trkpt>
      <trkpt lat="45.07162" lon="5.60982">
        <ele>1841</ele>
        <time>2021-09-15T16:29:30Z</time>
      </trkpt>
      <trkpt lat="45.07169" lon="5.6099">
        <ele>1837</ele>
        <time>2021-09-15T16:29:35Z</time>
      </trkpt>
      <trkpt lat="45.07185" lon="5.60995">
        <ele>1838</ele>
        <time>2021-09-15T16:29:43Z</time>
      </trkpt>
      <trkpt lat="45.07191" lon="5.60991">
        <ele>1843</ele>
        <time>2021-09-15T16:29:46Z</time>
      </trkpt>
      <trkpt lat="45.07201" lon="5.61001">
        <ele>1839</ele>
        <time>2021-09-15T16:29:52Z</time>
      </trkpt>
      <trkpt lat="45.07213" lon="5.61003">
        <ele>1842</ele>
        <time>2021-09-15T16:29:59Z</time>
      </trkpt>
      <trkpt lat="45.07218" lon="5.60999">
        <ele>1846</ele>
        <time>2021-09-15T16:30:01Z</time>
      </trkpt>
      <trkpt lat="45.07231" lon="5.61003">
        <ele>1847</ele>
        <time>2021-09-15T16:30:08Z</time>
      </trkpt>
      <trkpt lat="45.07237" lon="5.6101">
        <ele>1845</ele>
        <time>2021-09-15T16:30:12Z</time>
      </trkpt>
      <trkpt lat="45.07247" lon="5.61009">
        <ele>1848</ele>
        <time>2021-09-15T16:30:17Z</time>
      </trkpt>
      <trkpt lat="45.07273" lon="5.61014">
        <ele>1849</ele>
        <time>2021-09-15T16:30:30Z</time>
      </trkpt>
      <trkpt lat="45.07298" lon="5.61041">
        <ele>1836</ele>
        <time>2021-09-15T16:30:46Z</time>
      </trkpt>
      <trkpt lat="45.07306" lon="5.61038">
        <ele>1839</ele>
        <time>2021-09-15T16:30:50Z</time>
      </trkpt>
      <trkpt lat="45.07326" lon="5.61047">
        <ele>1836</ele>
        <time>2021-09-15T16:31:00Z</time>
      </trkpt>
      <trkpt lat="45.07341" lon="5.6106">
        <ele>1828</ele>
        <time>2021-09-15T16:31:09Z</time>
      </trkpt>
      <trkpt lat="45.07346" lon="5.61061">
        <ele>1827</ele>
        <time>2021-09-15T16:31:12Z</time>
      </trkpt>
      <trkpt lat="45.07349" lon="5.61067">
        <ele>1822</ele>
        <time>2021-09-15T16:31:14Z</time>
      </trkpt>
      <trkpt lat="45.07368" lon="5.61063">
        <ele>1821</ele>
        <time>2021-09-15T16:31:24Z</time>
      </trkpt>
      <trkpt lat="45.07369" lon="5.61056">
        <ele>1825</ele>
        <time>2021-09-15T16:31:27Z</time>
      </trkpt>
      <trkpt lat="45.07375" lon="5.61051">
        <ele>1828</ele>
        <time>2021-09-15T16:31:30Z</time>
      </trkpt>
      <trkpt lat="45.07405" lon="5.61034">
        <ele>1835</ele>
        <time>2021-09-15T16:31:46Z</time>
      </trkpt>
      <trkpt lat="45.07444" lon="5.6103">
        <ele>1835</ele>
        <time>2021-09-15T16:32:06Z</time>
      </trkpt>
      <trkpt lat="45.07462" lon="5.61038">
        <ele>1827</ele>
        <time>2021-09-15T16:32:15Z</time>
      </trkpt>
      <trkpt lat="45.07468" lon="5.61034">
        <ele>1830</ele>
        <time>2021-09-15T16:32:19Z</time>
      </trkpt>
      <trkpt lat="45.07492" lon="5.61043">
        <ele>1821</ele>
        <time>2021-09-15T16:32:31Z</time>
      </trkpt>
      <trkpt lat="45.07504" lon="5.61034">
        <ele>1827</ele>
        <time>2021-09-15T16:32:38Z</time>
      </trkpt>
      <trkpt lat="45.0752" lon="5.61035">
        <ele>1825</ele>
        <time>2021-09-15T16:32:46Z</time>
      </trkpt>
      <trkpt lat="45.07547" lon="5.61029">
        <ele>1827</ele>
        <time>2021-09-15T16:32:59Z</time>
      </trkpt>
      <trkpt lat="45.07552" lon="5.61036">
        <ele>1821</ele>
        <time>2021-09-15T16:33:03Z</time>
      </trkpt>
      <trkpt lat="45.0757" lon="5.61036">
        <ele>1820</ele>
        <time>2021-09-15T16:33:12Z</time>
      </trkpt>
      <trkpt lat="45.07598" lon="5.61042">
        <ele>1812</ele>
        <time>2021-09-15T16:33:26Z</time>
      </trkpt>
      <trkpt lat="45.07609" lon="5.61049">
        <ele>1806</ele>
        <time>2021-09-15T16:33:32Z</time>
      </trkpt>
      <trkpt lat="45.07636" lon="5.61053">
        <ele>1800</ele>
        <time>2021-09-15T16:33:46Z</time>
      </trkpt>
      <trkpt lat="45.07651" lon="5.61035">
        <ele>1807</ele>
        <time>2021-09-15T16:33:56Z</time>
      </trkpt>
      <trkpt lat="45.07666" lon="5.61038">
        <ele>1803</ele>
        <time>2021-09-15T16:34:03Z</time>
      </trkpt>
      <trkpt lat="45.07681" lon="5.61047">
        <ele>1805</ele>
        <time>2021-09-15T16:34:11Z</time>
      </trkpt>
      <trkpt lat="45.07723" lon="5.61092">
        <ele>1789</ele>
        <time>2021-09-15T16:34:38Z</time>
      </trkpt>
      <trkpt lat="45.07736" lon="5.61099">
        <ele>1789</ele>
        <time>2021-09-15T16:34:45Z</time>
      </trkpt>
      <trkpt lat="45.07747" lon="5.61114">
        <ele>1786</ele>
        <time>2021-09-15T16:34:52Z</time>
      </trkpt>
      <trkpt lat="45.07754" lon="5.61117">
        <ele>1786</ele>
        <time>2021-09-15T16:34:56Z</time>
      </trkpt>
      <trkpt lat="45.07758" lon="5.61131">
        <ele>1781</ele>
        <time>2021-09-15T16:35:01Z</time>
      </trkpt>
      <trkpt lat="45.07773" lon="5.61134">
        <ele>1782</ele>
        <time>2021-09-15T16:35:09Z</time>
      </trkpt>
      <trkpt lat="45.07775" lon="5.61137">
        <ele>1781</ele>
        <time>2021-09-15T16:35:10Z</time>
      </trkpt>
      <trkpt lat="45.07773" lon="5.61138">
        <ele>1780</ele>
        <time>2021-09-15T16:35:11Z</time>
      </trkpt>
      <trkpt lat="45.07796" lon="5.61142">
        <ele>1781</ele>
        <time>2021-09-15T16:35:23Z</time>
      </trkpt>
      <trkpt lat="45.07831" lon="5.61139">
        <ele>1788</ele>
        <time>2021-09-15T16:35:41Z</time>
      </trkpt>
      <trkpt lat="45.07845" lon="5.61146">
        <ele>1786</ele>
        <time>2021-09-15T16:35:48Z</time>
      </trkpt>
      <trkpt lat="45.07857" lon="5.61146">
        <ele>1789</ele>
        <time>2021-09-15T16:35:54Z</time>
      </trkpt>
      <trkpt lat="45.07871" lon="5.61152">
        <ele>1787</ele>
        <time>2021-09-15T16:36:01Z</time>
      </trkpt>
      <trkpt lat="45.07884" lon="5.61154">
        <ele>1788</ele>
        <time>2021-09-15T16:36:08Z</time>
      </trkpt>
      <trkpt lat="45.07909" lon="5.61175">
        <ele>1778</ele>
        <time>2021-09-15T16:36:22Z</time>
      </trkpt>
      <trkpt lat="45.07918" lon="5.61176">
        <ele>1780</ele>
        <time>2021-09-15T16:36:27Z</time>
      </trkpt>
      <trkpt lat="45.07967" lon="5.61213">
        <ele>1772</ele>
        <time>2021-09-15T16:36:55Z</time>
      </trkpt>
      <trkpt lat="45.08016" lon="5.61206">
        <ele>1779</ele>
        <time>2021-09-15T16:37:19Z</time>
      </trkpt>
      <trkpt lat="45.08034" lon="5.61199">
        <ele>1777</ele>
        <time>2021-09-15T16:37:29Z</time>
      </trkpt>
      <trkpt lat="45.08057" lon="5.61205">
        <ele>1766</ele>
        <time>2021-09-15T16:37:40Z</time>
      </trkpt>
      <trkpt lat="45.08081" lon="5.61198">
        <ele>1761</ele>
        <time>2021-09-15T16:37:53Z</time>
      </trkpt>
      <trkpt lat="45.08131" lon="5.61202">
        <ele>1752</ele>
        <time>2021-09-15T16:38:18Z</time>
      </trkpt>
      <trkpt lat="45.0817" lon="5.61217">
        <ele>1744</ele>
        <time>2021-09-15T16:38:38Z</time>
      </trkpt>
      <trkpt lat="45.08198" lon="5.61232">
        <ele>1739</ele>
        <time>2021-09-15T16:38:53Z</time>
      </trkpt>
      <trkpt lat="45.08213" lon="5.6126">
        <ele>1735</ele>
        <time>2021-09-15T16:39:05Z</time>
      </trkpt>
      <trkpt lat="45.08235" lon="5.61287">
        <ele>1730</ele>
        <time>2021-09-15T16:39:20Z</time>
      </trkpt>
      <trkpt lat="45.08257" lon="5.61305">
        <ele>1728</ele>
        <time>2021-09-15T16:39:33Z</time>
      </trkpt>
      <trkpt lat="45.08265" lon="5.61318">
        <ele>1726</ele>
        <time>2021-09-15T16:39:39Z</time>
      </trkpt>
      <trkpt lat="45.08351" lon="5.61363">
        <ele>1731</ele>
        <time>2021-09-15T16:40:25Z</time>
      </trkpt>
      <trkpt lat="45.08378" lon="5.6136">
        <ele>1738</ele>
        <time>2021-09-15T16:40:38Z</time>
      </trkpt>
      <trkpt lat="45.08394" lon="5.61397">
        <ele>1742</ele>
        <time>2021-09-15T16:40:53Z</time>
      </trkpt>
      <trkpt lat="45.08489" lon="5.61418">
        <ele>1777</ele>
        <time>2021-09-15T16:41:42Z</time>
      </trkpt>
      <trkpt lat="45.08492" lon="5.61453">
        <ele>1771</ele>
        <time>2021-09-15T16:41:54Z</time>
      </trkpt>
      <trkpt lat="45.0858" lon="5.61436">
        <ele>1811</ele>
        <time>2021-09-15T16:42:38Z</time>
      </trkpt>
      <trkpt lat="45.0859" lon="5.61457">
        <ele>1819</ele>
        <time>2021-09-15T16:42:47Z</time>
      </trkpt>
      <trkpt lat="45.0862" lon="5.6147">
        <ele>1828</ele>
        <time>2021-09-15T16:43:03Z</time>
      </trkpt>
      <trkpt lat="45.08604" lon="5.61481">
        <ele>1829</ele>
        <time>2021-09-15T16:43:12Z</time>
      </trkpt>
      <trkpt lat="45.08603" lon="5.61512">
        <ele>1831</ele>
        <time>2021-09-15T16:43:23Z</time>
      </trkpt>
      <trkpt lat="45.08619" lon="5.61546">
        <ele>1832</ele>
        <time>2021-09-15T16:43:37Z</time>
      </trkpt>
      <trkpt lat="45.08654" lon="5.6158">
        <ele>1860</ele>
        <time>2021-09-15T16:43:59Z</time>
      </trkpt>
      <trkpt lat="45.08748" lon="5.61617">
        <ele>1888</ele>
        <time>2021-09-15T16:44:47Z</time>
      </trkpt>
      <trkpt lat="45.08822" lon="5.61811">
        <ele>1900</ele>
        <time>2021-09-15T16:46:05Z</time>
      </trkpt>
      <trkpt lat="45.08875" lon="5.61848">
        <ele>1903</ele>
        <time>2021-09-15T16:46:35Z</time>
      </trkpt>
      <trkpt lat="45.08915" lon="5.61954">
        <ele>1891</ele>
        <time>2021-09-15T16:47:17Z</time>
      </trkpt>
      <trkpt lat="45.08966" lon="5.6197">
        <ele>1907</ele>
        <time>2021-09-15T16:47:44Z</time>
      </trkpt>
      <trkpt lat="45.08995" lon="5.61983">
        <ele>1922</ele>
        <time>2021-09-15T16:47:59Z</time>
      </trkpt>
      <trkpt lat="45.09025" lon="5.62008">
        <ele>1905</ele>
        <time>2021-09-15T16:48:16Z</time>
      </trkpt>
      <trkpt lat="45.09095" lon="5.61994">
        <ele>1883</ele>
        <time>2021-09-15T16:48:52Z</time>
      </trkpt>
      <trkpt lat="45.09095" lon="5.61951">
        <ele>1890</ele>
        <time>2021-09-15T16:49:07Z</time>
      </trkpt>
      <trkpt lat="45.09158" lon="5.61919">
        <ele>1879</ele>
        <time>2021-09-15T16:49:40Z</time>
      </trkpt>
      <trkpt lat="45.09133" lon="5.61742">
        <ele>1831</ele>
        <time>2021-09-15T16:50:44Z</time>
      </trkpt>
      <trkpt lat="45.0911" lon="5.61709">
        <ele>1823</ele>
        <time>2021-09-15T16:51:00Z</time>
      </trkpt>
      <trkpt lat="45.09108" lon="5.6159">
        <ele>1792</ele>
        <time>2021-09-15T16:51:42Z</time>
      </trkpt>
      <trkpt lat="45.09098" lon="5.61557">
        <ele>1782</ele>
        <time>2021-09-15T16:51:55Z</time>
      </trkpt>
      <trkpt lat="45.09096" lon="5.61509">
        <ele>1768</ele>
        <time>2021-09-15T16:52:12Z</time>
      </trkpt>
      <trkpt lat="45.09105" lon="5.61492">
        <ele>1765</ele>
        <time>2021-09-15T16:52:20Z</time>
      </trkpt>
      <trkpt lat="45.09097" lon="5.61442">
        <ele>1756</ele>
        <time>2021-09-15T16:52:38Z</time>
      </trkpt>
      <trkpt lat="45.09071" lon="5.61421">
        <ele>1754</ele>
        <time>2021-09-15T16:52:53Z</time>
      </trkpt>
      <trkpt lat="45.09069" lon="5.6138">
        <ele>1748</ele>
        <time>2021-09-15T16:53:07Z</time>
      </trkpt>
      <trkpt lat="45.09023" lon="5.61222">
        <ele>1726</ele>
        <time>2021-09-15T16:54:08Z</time>
      </trkpt>
      <trkpt lat="45.0905" lon="5.61189">
        <ele>1716</ele>
        <time>2021-09-15T16:54:25Z</time>
      </trkpt>
      <trkpt lat="45.09048" lon="5.61147">
        <ele>1706</ele>
        <time>2021-09-15T16:54:40Z</time>
      </trkpt>
      <trkpt lat="45.09059" lon="5.61133">
        <ele>1702</ele>
        <time>2021-09-15T16:54:48Z</time>
      </trkpt>
      <trkpt lat="45.09049" lon="5.61101">
        <ele>1695</ele>
        <time>2021-09-15T16:55:00Z</time>
      </trkpt>
      <trkpt lat="45.09036" lon="5.61091">
        <ele>1692</ele>
        <time>2021-09-15T16:55:08Z</time>
      </trkpt>
      <trkpt lat="45.09015" lon="5.60952">
        <ele>1661</ele>
        <time>2021-09-15T16:55:58Z</time>
      </trkpt>
      <trkpt lat="45.09106" lon="5.60898">
        <ele>1646</ele>
        <time>2021-09-15T16:56:47Z</time>
      </trkpt>
      <trkpt lat="45.09169" lon="5.60851">
        <ele>1640</ele>
        <time>2021-09-15T16:57:23Z</time>
      </trkpt>
      <trkpt lat="45.09195" lon="5.60803">
        <ele>1630</ele>
        <time>2021-09-15T16:57:44Z</time>
      </trkpt>
      <trkpt lat="45.09296" lon="5.60732">
        <ele>1585</ele>
        <time>2021-09-15T16:58:41Z</time>
      </trkpt>
      <trkpt lat="45.09317" lon="5.60734">
        <ele>1581</ele>
        <time>2021-09-15T16:58:51Z</time>
      </trkpt>
      <trkpt lat="45.094" lon="5.6066">
        <ele>1539</ele>
        <time>2021-09-15T16:59:40Z</time>
      </trkpt>
      <trkpt lat="45.09343" lon="5.60584">
        <ele>1517</ele>
        <time>2021-09-15T17:00:19Z</time>
      </trkpt>
      <trkpt lat="45.09401" lon="5.60318">
        <ele>1461</ele>
        <time>2021-09-15T17:01:58Z</time>
      </trkpt>
      <trkpt lat="45.09452" lon="5.60285">
        <ele>1452</ele>
        <time>2021-09-15T17:02:26Z</time>
      </trkpt>
      <trkpt lat="45.09413" lon="5.60186">
        <ele>1454</ele>
        <time>2021-09-15T17:03:06Z</time>
      </trkpt>
      <trkpt lat="45.09309" lon="5.6011">
        <ele>1455</ele>
        <time>2021-09-15T17:04:04Z</time>
      </trkpt>
      <trkpt lat="45.09283" lon="5.60101">
        <ele>1454</ele>
        <time>2021-09-15T17:04:18Z</time>
      </trkpt>
      <trkpt lat="45.09178" lon="5.60096">
        <ele>1453</ele>
        <time>2021-09-15T17:05:10Z</time>
      </trkpt>
      <trkpt lat="45.09139" lon="5.6014">
        <ele>1459</ele>
        <time>2021-09-15T17:05:35Z</time>
      </trkpt>
      <trkpt lat="45.09109" lon="5.60136">
        <ele>1458</ele>
        <time>2021-09-15T17:05:50Z</time>
      </trkpt>
      <trkpt lat="45.0908" lon="5.60204">
        <ele>1469</ele>
        <time>2021-09-15T17:06:18Z</time>
      </trkpt>
      <trkpt lat="45.09034" lon="5.60242">
        <ele>1474</ele>
        <time>2021-09-15T17:06:45Z</time>
      </trkpt>
      <trkpt lat="45.08969" lon="5.60239">
        <ele>1474</ele>
        <time>2021-09-15T17:07:18Z</time>
      </trkpt>
      <trkpt lat="45.08938" lon="5.60259">
        <ele>1480</ele>
        <time>2021-09-15T17:07:35Z</time>
      </trkpt>
      <trkpt lat="45.08912" lon="5.60242">
        <ele>1477</ele>
        <time>2021-09-15T17:07:49Z</time>
      </trkpt>
      <trkpt lat="45.08845" lon="5.60284">
        <ele>1480</ele>
        <time>2021-09-15T17:08:26Z</time>
      </trkpt>
      <trkpt lat="45.08823" lon="5.60397">
        <ele>1500</ele>
        <time>2021-09-15T17:09:07Z</time>
      </trkpt>
      <trkpt lat="45.08746" lon="5.60518">
        <ele>1511</ele>
        <time>2021-09-15T17:10:05Z</time>
      </trkpt>
      <trkpt lat="45.08736" lon="5.6053">
        <ele>1515</ele>
        <time>2021-09-15T17:10:11Z</time>
      </trkpt>
      <trkpt lat="45.08696" lon="5.60524">
        <ele>1515</ele>
        <time>2021-09-15T17:10:31Z</time>
      </trkpt>
      <trkpt lat="45.08677" lon="5.60532">
        <ele>1518</ele>
        <time>2021-09-15T17:10:41Z</time>
      </trkpt>
      <trkpt lat="45.08654" lon="5.60519">
        <ele>1517</ele>
        <time>2021-09-15T17:10:54Z</time>
      </trkpt>
      <trkpt lat="45.08623" lon="5.60551">
        <ele>1527</ele>
        <time>2021-09-15T17:11:13Z</time>
      </trkpt>
      <trkpt lat="45.08514" lon="5.60501">
        <ele>1537</ele>
        <time>2021-09-15T17:12:10Z</time>
      </trkpt>
      <trkpt lat="45.08524" lon="5.60457">
        <ele>1530</ele>
        <time>2021-09-15T17:12:26Z</time>
      </trkpt>
      <trkpt lat="45.08499" lon="5.60403">
        <ele>1529</ele>
        <time>2021-09-15T17:12:49Z</time>
      </trkpt>
      <trkpt lat="45.08494" lon="5.60356">
        <ele>1521</ele>
        <time>2021-09-15T17:13:06Z</time>
      </trkpt>
      <trkpt lat="45.08347" lon="5.60234">
        <ele>1521</ele>
        <time>2021-09-15T17:14:31Z</time>
      </trkpt>
      <trkpt lat="45.08219" lon="5.60221">
        <ele>1528</ele>
        <time>2021-09-15T17:15:36Z</time>
      </trkpt>
      <trkpt lat="45.08108" lon="5.60186">
        <ele>1524</ele>
        <time>2021-09-15T17:16:32Z</time>
      </trkpt>
      <trkpt lat="45.08012" lon="5.60172">
        <ele>1524</ele>
        <time>2021-09-15T17:17:21Z</time>
      </trkpt>
      <trkpt lat="45.0795" lon="5.6018">
        <ele>1535</ele>
        <time>2021-09-15T17:17:52Z</time>
      </trkpt>
      <trkpt lat="45.07842" lon="5.60143">
        <ele>1534</ele>
        <time>2021-09-15T17:18:48Z</time>
      </trkpt>
      <trkpt lat="45.07788" lon="5.60084">
        <ele>1520</ele>
        <time>2021-09-15T17:19:22Z</time>
      </trkpt>
      <trkpt lat="45.0772" lon="5.60064">
        <ele>1531</ele>
        <time>2021-09-15T17:19:56Z</time>
      </trkpt>
      <trkpt lat="45.07669" lon="5.6001">
        <ele>1513</ele>
        <time>2021-09-15T17:20:28Z</time>
      </trkpt>
      <trkpt lat="45.07624" lon="5.60049">
        <ele>1530</ele>
        <time>2021-09-15T17:20:55Z</time>
      </trkpt>
      <trkpt lat="45.07526" lon="5.60058">
        <ele>1537</ele>
        <time>2021-09-15T17:21:44Z</time>
      </trkpt>
      <trkpt lat="45.0745" lon="5.60007">
        <ele>1553</ele>
        <time>2021-09-15T17:22:26Z</time>
      </trkpt>
      <trkpt lat="45.07466" lon="5.59875">
        <ele>1528</ele>
        <time>2021-09-15T17:23:13Z</time>
      </trkpt>
      <trkpt lat="45.07433" lon="5.59831">
        <ele>1550</ele>
        <time>2021-09-15T17:23:36Z</time>
      </trkpt>
      <trkpt lat="45.07412" lon="5.59756">
        <ele>1552</ele>
        <time>2021-09-15T17:24:04Z</time>
      </trkpt>
      <trkpt lat="45.07395" lon="5.59718">
        <ele>1547</ele>
        <time>2021-09-15T17:24:20Z</time>
      </trkpt>
      <trkpt lat="45.07342" lon="5.59688">
        <ele>1560</ele>
        <time>2021-09-15T17:24:49Z</time>
      </trkpt>
      <trkpt lat="45.07326" lon="5.59548">
        <ele>1548</ele>
        <time>2021-09-15T17:25:39Z</time>
      </trkpt>
      <trkpt lat="45.07282" lon="5.59494">
        <ele>1556</ele>
        <time>2021-09-15T17:26:08Z</time>
      </trkpt>
      <trkpt lat="45.07211" lon="5.59359">
        <ele>1529</ele>
        <time>2021-09-15T17:27:08Z</time>
      </trkpt>
      <trkpt lat="45.07148" lon="5.59397">
        <ele>1543</ele>
        <time>2021-09-15T17:27:42Z</time>
      </trkpt>
      <trkpt lat="45.0712" lon="5.5941">
        <ele>1544</ele>
        <time>2021-09-15T17:27:57Z</time>
      </trkpt>
      <trkpt lat="45.07099" lon="5.59411">
        <ele>1540</ele>
        <time>2021-09-15T17:28:07Z</time>
      </trkpt>
      <trkpt lat="45.07092" lon="5.59406">
        <ele>1538</ele>
        <time>2021-09-15T17:28:11Z</time>
      </trkpt>
      <trkpt lat="45.07063" lon="5.59411">
        <ele>1545</ele>
        <time>2021-09-15T17:28:26Z</time>
      </trkpt>
      <trkpt lat="45.07025" lon="5.59456">
        <ele>1567</ele>
        <time>2021-09-15T17:28:51Z</time>
      </trkpt>
      <trkpt lat="45.07037" lon="5.5947">
        <ele>1568</ele>
        <time>2021-09-15T17:28:58Z</time>
      </trkpt>
      <trkpt lat="45.07029" lon="5.59477">
        <ele>1570</ele>
        <time>2021-09-15T17:29:03Z</time>
      </trkpt>
      <trkpt lat="45.07019" lon="5.59477">
        <ele>1571</ele>
        <time>2021-09-15T17:29:08Z</time>
      </trkpt>
      <trkpt lat="45.06996" lon="5.59507">
        <ele>1579</ele>
        <time>2021-09-15T17:29:24Z</time>
      </trkpt>
      <trkpt lat="45.0699" lon="5.59527">
        <ele>1587</ele>
        <time>2021-09-15T17:29:31Z</time>
      </trkpt>
      <trkpt lat="45.06993" lon="5.59534">
        <ele>1587</ele>
        <time>2021-09-15T17:29:34Z</time>
      </trkpt>
      <trkpt lat="45.06983" lon="5.59558">
        <ele>1597</ele>
        <time>2021-09-15T17:29:44Z</time>
      </trkpt>
      <trkpt lat="45.06986" lon="5.59564">
        <ele>1597</ele>
        <time>2021-09-15T17:29:47Z</time>
      </trkpt>
      <trkpt lat="45.06981" lon="5.59576">
        <ele>1601</ele>
        <time>2021-09-15T17:29:52Z</time>
      </trkpt>
      <trkpt lat="45.06972" lon="5.59585">
        <ele>1606</ele>
        <time>2021-09-15T17:29:57Z</time>
      </trkpt>
      <trkpt lat="45.06972" lon="5.59597">
        <ele>1610</ele>
        <time>2021-09-15T17:30:01Z</time>
      </trkpt>
      <trkpt lat="45.06957" lon="5.59607">
        <ele>1616</ele>
        <time>2021-09-15T17:30:10Z</time>
      </trkpt>
      <trkpt lat="45.06959" lon="5.59617">
        <ele>1619</ele>
        <time>2021-09-15T17:30:13Z</time>
      </trkpt>
      <trkpt lat="45.06947" lon="5.59637">
        <ele>1626</ele>
        <time>2021-09-15T17:30:23Z</time>
      </trkpt>
      <trkpt lat="45.06952" lon="5.59646">
        <ele>1628</ele>
        <time>2021-09-15T17:30:27Z</time>
      </trkpt>
      <trkpt lat="45.06944" lon="5.5966">
        <ele>1633</ele>
        <time>2021-09-15T17:30:33Z</time>
      </trkpt>
      <trkpt lat="45.06946" lon="5.59669">
        <ele>1635</ele>
        <time>2021-09-15T17:30:36Z</time>
      </trkpt>
      <trkpt lat="45.06928" lon="5.59681">
        <ele>1640</ele>
        <time>2021-09-15T17:30:46Z</time>
      </trkpt>
      <trkpt lat="45.06916" lon="5.59696">
        <ele>1646</ele>
        <time>2021-09-15T17:30:54Z</time>
      </trkpt>
      <trkpt lat="45.06872" lon="5.59713">
        <ele>1663</ele>
        <time>2021-09-15T17:31:17Z</time>
      </trkpt>
      <trkpt lat="45.06851" lon="5.59745">
        <ele>1674</ele>
        <time>2021-09-15T17:31:33Z</time>
      </trkpt>
      <trkpt lat="45.06839" lon="5.59788">
        <ele>1686</ele>
        <time>2021-09-15T17:31:49Z</time>
      </trkpt>
      <trkpt lat="45.06842" lon="5.59807">
        <ele>1689</ele>
        <time>2021-09-15T17:31:56Z</time>
      </trkpt>
      <trkpt lat="45.06812" lon="5.59841">
        <ele>1702</ele>
        <time>2021-09-15T17:32:15Z</time>
      </trkpt>
      <trkpt lat="45.06794" lon="5.59853">
        <ele>1707</ele>
        <time>2021-09-15T17:32:25Z</time>
      </trkpt>
      <trkpt lat="45.06774" lon="5.59862">
        <ele>1712</ele>
        <time>2021-09-15T17:32:35Z</time>
      </trkpt>
      <trkpt lat="45.0676" lon="5.59858">
        <ele>1713</ele>
        <time>2021-09-15T17:32:43Z</time>
      </trkpt>
      <trkpt lat="45.06742" lon="5.59843">
        <ele>1718</ele>
        <time>2021-09-15T17:32:53Z</time>
      </trkpt>
      <trkpt lat="45.06723" lon="5.59841">
        <ele>1728</ele>
        <time>2021-09-15T17:33:03Z</time>
      </trkpt>
      <trkpt lat="45.06696" lon="5.5981">
        <ele>1743</ele>
        <time>2021-09-15T17:33:20Z</time>
      </trkpt>
      <trkpt lat="45.06694" lon="5.59796">
        <ele>1743</ele>
        <time>2021-09-15T17:33:25Z</time>
      </trkpt>
      <trkpt lat="45.06697" lon="5.59791">
        <ele>1742</ele>
        <time>2021-09-15T17:33:27Z</time>
      </trkpt>
      <trkpt lat="45.06681" lon="5.59744">
        <ele>1751</ele>
        <time>2021-09-15T17:33:46Z</time>
      </trkpt>
      <trkpt lat="45.06663" lon="5.59721">
        <ele>1762</ele>
        <time>2021-09-15T17:33:58Z</time>
      </trkpt>
      <trkpt lat="45.06664" lon="5.59688">
        <ele>1764</ele>
        <time>2021-09-15T17:34:10Z</time>
      </trkpt>
      <trkpt lat="45.06671" lon="5.59681">
        <ele>1761</ele>
        <time>2021-09-15T17:34:14Z</time>
      </trkpt>
      <trkpt lat="45.06678" lon="5.5966">
        <ele>1759</ele>
        <time>2021-09-15T17:34:22Z</time>
      </trkpt>
      <trkpt lat="45.06675" lon="5.59586">
        <ele>1775</ele>
        <time>2021-09-15T17:34:48Z</time>
      </trkpt>
      <trkpt lat="45.06655" lon="5.59563">
        <ele>1782</ele>
        <time>2021-09-15T17:35:01Z</time>
      </trkpt>
      <trkpt lat="45.06656" lon="5.5955">
        <ele>1781</ele>
        <time>2021-09-15T17:35:06Z</time>
      </trkpt>
      <trkpt lat="45.06637" lon="5.59518">
        <ele>1783</ele>
        <time>2021-09-15T17:35:21Z</time>
      </trkpt>
      <trkpt lat="45.06627" lon="5.59518">
        <ele>1784</ele>
        <time>2021-09-15T17:35:26Z</time>
      </trkpt>
      <trkpt lat="45.06564" lon="5.59541">
        <ele>1796</ele>
        <time>2021-09-15T17:35:58Z</time>
      </trkpt>
      <trkpt lat="45.06531" lon="5.59543">
        <ele>1805</ele>
        <time>2021-09-15T17:36:15Z</time>
      </trkpt>
      <trkpt lat="45.06432" lon="5.59526">
        <ele>1827</ele>
        <time>2021-09-15T17:37:05Z</time>
      </trkpt>
      <trkpt lat="45.06383" lon="5.59495">
        <ele>1830</ele>
        <time>2021-09-15T17:37:31Z</time>
      </trkpt>
      <trkpt lat="45.06344" lon="5.59499">
        <ele>1835</ele>
        <time>2021-09-15T17:37:51Z</time>
      </trkpt>
      <trkpt lat="45.06327" lon="5.59495">
        <ele>1835</ele>
        <time>2021-09-15T17:38:00Z</time>
      </trkpt>
      <trkpt lat="45.06315" lon="5.59504">
        <ele>1836</ele>
        <time>2021-09-15T17:38:06Z</time>
      </trkpt>
      <trkpt lat="45.06294" lon="5.59575">
        <ele>1852</ele>
        <time>2021-09-15T17:38:34Z</time>
      </trkpt>
      <trkpt lat="45.06311" lon="5.59622">
        <ele>1865</ele>
        <time>2021-09-15T17:38:52Z</time>
      </trkpt>
      <trkpt lat="45.06278" lon="5.59631">
        <ele>1865</ele>
        <time>2021-09-15T17:39:09Z</time>
      </trkpt>
      <trkpt lat="45.06286" lon="5.59666">
        <ele>1873</ele>
        <time>2021-09-15T17:39:22Z</time>
      </trkpt>
      <trkpt lat="45.06319" lon="5.59732">
        <ele>1887</ele>
        <time>2021-09-15T17:39:51Z</time>
      </trkpt>
      <trkpt lat="45.06298" lon="5.59787">
        <ele>1886</ele>
        <time>2021-09-15T17:40:13Z</time>
      </trkpt>
      <trkpt lat="45.06335" lon="5.59886">
        <ele>1896</ele>
        <time>2021-09-15T17:40:52Z</time>
      </trkpt>
      <trkpt lat="45.06325" lon="5.59956">
        <ele>1891</ele>
        <time>2021-09-15T17:41:18Z</time>
      </trkpt>
      <trkpt lat="45.0623" lon="5.59902">
        <ele>1849</ele>
        <time>2021-09-15T17:42:09Z</time>
      </trkpt>
      <trkpt lat="45.06151" lon="5.59899">
        <ele>1804</ele>
        <time>2021-09-15T17:42:48Z</time>
      </trkpt>
      <trkpt lat="45.06117" lon="5.59885">
        <ele>1784</ele>
        <time>2021-09-15T17:43:06Z</time>
      </trkpt>
      <trkpt lat="45.06098" lon="5.59886">
        <ele>1772</ele>
        <time>2021-09-15T17:43:16Z</time>
      </trkpt>
      <trkpt lat="45.06096" lon="5.59897">
        <ele>1771</ele>
        <time>2021-09-15T17:43:20Z</time>
      </trkpt>
      <trkpt lat="45.06089" lon="5.59895">
        <ele>1767</ele>
        <time>2021-09-15T17:43:23Z</time>
      </trkpt>
      <trkpt lat="45.06074" lon="5.59834">
        <ele>1759</ele>
        <time>2021-09-15T17:43:46Z</time>
      </trkpt>
      <trkpt lat="45.06034" lon="5.59792">
        <ele>1747</ele>
        <time>2021-09-15T17:44:11Z</time>
      </trkpt>
      <trkpt lat="45.06029" lon="5.59779">
        <ele>1745</ele>
        <time>2021-09-15T17:44:16Z</time>
      </trkpt>
      <trkpt lat="45.06001" lon="5.59759">
        <ele>1732</ele>
        <time>2021-09-15T17:44:32Z</time>
      </trkpt>
      <trkpt lat="45.05946" lon="5.59748">
        <ele>1719</ele>
        <time>2021-09-15T17:45:00Z</time>
      </trkpt>
      <trkpt lat="45.0589" lon="5.59727">
        <ele>1701</ele>
        <time>2021-09-15T17:45:29Z</time>
      </trkpt>
      <trkpt lat="45.05854" lon="5.59753">
        <ele>1697</ele>
        <time>2021-09-15T17:45:49Z</time>
      </trkpt>
      <trkpt lat="45.05803" lon="5.59704">
        <ele>1674</ele>
        <time>2021-09-15T17:46:20Z</time>
      </trkpt>
      <trkpt lat="45.05779" lon="5.59709">
        <ele>1671</ele>
        <time>2021-09-15T17:46:32Z</time>
      </trkpt>
      <trkpt lat="45.05768" lon="5.597">
        <ele>1667</ele>
        <time>2021-09-15T17:46:38Z</time>
      </trkpt>
      <trkpt lat="45.0576" lon="5.59674">
        <ele>1660</ele>
        <time>2021-09-15T17:46:48Z</time>
      </trkpt>
      <trkpt lat="45.05761" lon="5.59652">
        <ele>1655</ele>
        <time>2021-09-15T17:46:56Z</time>
      </trkpt>
      <trkpt lat="45.05741" lon="5.59651">
        <ele>1651</ele>
        <time>2021-09-15T17:47:06Z</time>
      </trkpt>
      <trkpt lat="45.05673" lon="5.596">
        <ele>1636</ele>
        <time>2021-09-15T17:47:45Z</time>
      </trkpt>
      <trkpt lat="45.05662" lon="5.59565">
        <ele>1633</ele>
        <time>2021-09-15T17:47:58Z</time>
      </trkpt>
      <trkpt lat="45.05662" lon="5.59546">
        <ele>1630</ele>
        <time>2021-09-15T17:48:05Z</time>
      </trkpt>
      <trkpt lat="45.05674" lon="5.59524">
        <ele>1625</ele>
        <time>2021-09-15T17:48:15Z</time>
      </trkpt>
      <trkpt lat="45.05669" lon="5.59504">
        <ele>1622</ele>
        <time>2021-09-15T17:48:22Z</time>
      </trkpt>
      <trkpt lat="45.05704" lon="5.59443">
        <ele>1600</ele>
        <time>2021-09-15T17:48:50Z</time>
      </trkpt>
      <trkpt lat="45.05705" lon="5.59419">
        <ele>1593</ele>
        <time>2021-09-15T17:48:58Z</time>
      </trkpt>
      <trkpt lat="45.05689" lon="5.59392">
        <ele>1587</ele>
        <time>2021-09-15T17:49:11Z</time>
      </trkpt>
      <trkpt lat="45.05672" lon="5.59375">
        <ele>1584</ele>
        <time>2021-09-15T17:49:21Z</time>
      </trkpt>
      <trkpt lat="45.05667" lon="5.59356">
        <ele>1576</ele>
        <time>2021-09-15T17:49:29Z</time>
      </trkpt>
      <trkpt lat="45.05643" lon="5.59333">
        <ele>1567</ele>
        <time>2021-09-15T17:49:43Z</time>
      </trkpt>
      <trkpt lat="45.05622" lon="5.59307">
        <ele>1557</ele>
        <time>2021-09-15T17:49:57Z</time>
      </trkpt>
      <trkpt lat="45.05614" lon="5.59271">
        <ele>1542</ele>
        <time>2021-09-15T17:50:10Z</time>
      </trkpt>
      <trkpt lat="45.05744" lon="5.58889">
        <ele>1489</ele>
        <time>2021-09-15T17:52:40Z</time>
      </trkpt>
      <trkpt lat="45.05627" lon="5.58974">
        <ele>1495</ele>
        <time>2021-09-15T17:53:46Z</time>
      </trkpt>
      <trkpt lat="45.05567" lon="5.5901">
        <ele>1491</ele>
        <time>2021-09-15T17:54:19Z</time>
      </trkpt>
      <trkpt lat="45.05529" lon="5.59091">
        <ele>1497</ele>
        <time>2021-09-15T17:54:53Z</time>
      </trkpt>
      <trkpt lat="45.05496" lon="5.59093">
        <ele>1492</ele>
        <time>2021-09-15T17:55:10Z</time>
      </trkpt>
      <trkpt lat="45.05358" lon="5.58986">
        <ele>1485</ele>
        <time>2021-09-15T17:56:28Z</time>
      </trkpt>
      <trkpt lat="45.0532" lon="5.58878">
        <ele>1471</ele>
        <time>2021-09-15T17:57:11Z</time>
      </trkpt>
      <trkpt lat="45.0527" lon="5.58808">
        <ele>1468</ele>
        <time>2021-09-15T17:57:46Z</time>
      </trkpt>
      <trkpt lat="45.05376" lon="5.58405">
        <ele>1409</ele>
        <time>2021-09-15T18:00:18Z</time>
      </trkpt>
      <trkpt lat="45.05535" lon="5.58288">
        <ele>1378</ele>
        <time>2021-09-15T18:01:48Z</time>
      </trkpt>
      <trkpt lat="45.05686" lon="5.58164">
        <ele>1343</ele>
        <time>2021-09-15T18:03:15Z</time>
      </trkpt>
      <trkpt lat="45.05882" lon="5.57904">
        <ele>1293</ele>
        <time>2021-09-15T18:05:30Z</time>
      </trkpt>
      <trkpt lat="45.05929" lon="5.57767">
        <ele>1267</ele>
        <time>2021-09-15T18:06:23Z</time>
      </trkpt>
      <trkpt lat="45.05946" lon="5.5751">
        <ele>1227</ele>
        <time>2021-09-15T18:07:55Z</time>
      </trkpt>
      <trkpt lat="45.05975" lon="5.57211">
        <ele>1196</ele>
        <time>2021-09-15T18:09:41Z</time>
      </trkpt>
      <trkpt lat="45.06031" lon="5.57039">
        <ele>1167</ele>
        <time>2021-09-15T18:10:48Z</time>
      </trkpt>
      <trkpt lat="45.06157" lon="5.56796">
        <ele>1137</ele>
        <time>2021-09-15T18:12:35Z</time>
      </trkpt>
      <trkpt lat="45.06306" lon="5.56615">
        <ele>1113</ele>
        <time>2021-09-15T18:14:13Z</time>
      </trkpt>
      <trkpt lat="45.06442" lon="5.56509">
        <ele>1112</ele>
        <time>2021-09-15T18:15:31Z</time>
      </trkpt>
      <trkpt lat="45.06529" lon="5.56254">
        <ele>1096</ele>
        <time>2021-09-15T18:17:11Z</time>
      </trkpt>
      <trkpt lat="45.06656" lon="5.56036">
        <ele>1078</ele>
        <time>2021-09-15T18:18:51Z</time>
      </trkpt>
      <trkpt lat="45.06791" lon="5.55825">
        <ele>1057</ele>
        <time>2021-09-15T18:20:31Z</time>
      </trkpt>
    </trkseg>
  </trk>
</gpx>